Time;durP1;ratioP1;P1;durP2;ratioP2;P2;SDS_P1;SDS_P2;PMS_P1;PMS_P2;Temp;Humidity;BMP_temperature;BMP_pressure;BME280_temperature;BME280_humidity;BME280_pressure;Samples;Min_cycle;Max_cycle;Signal;HPM_P1;HPM_P2
2022/10/30 00:00:21;;;;;;;1999.90;999.90;;;13.10;99.90;;;;;;5089332;28;20462;-73
2022/10/30 00:02:48;;;;;;;1999.90;999.90;;;13.10;99.90;;;;;;5087957;28;20446;-73
2022/10/30 00:05:15;;;;;;;1999.90;999.90;;;13.10;99.90;;;;;;5088593;28;20520;-74
2022/10/30 00:07:42;;;;;;;1999.90;999.90;;;13.10;99.90;;;;;;5088427;28;21082;-74
2022/10/30 00:10:10;;;;;;;1999.90;999.90;;;13.20;99.90;;;;;;5088704;28;20532;-73
2022/10/30 00:12:37;;;;;;;1999.90;999.90;;;13.10;99.90;;;;;;5087369;28;20439;-73
2022/10/30 00:15:05;;;;;;;1999.90;999.90;;;13.10;99.90;;;;;;5087861;28;20442;-74
2022/10/30 00:17:32;;;;;;;1999.90;999.90;;;13.10;99.90;;;;;;5087655;28;20970;-73
2022/10/30 00:19:59;;;;;;;1999.90;999.90;;;13.10;99.90;;;;;;5088783;28;20458;-73
2022/10/30 00:22:26;;;;;;;1999.90;999.90;;;13.00;99.90;;;;;;5087994;28;20461;-73
2022/10/30 00:24:53;;;;;;;1999.90;999.90;;;13.00;99.90;;;;;;5087942;28;20940;-73
2022/10/30 00:27:21;;;;;;;1999.90;999.90;;;13.00;99.90;;;;;;5088587;28;20446;-72
2022/10/30 00:29:48;;;;;;;1999.90;999.90;;;12.90;99.90;;;;;;5087919;28;20492;-73
2022/10/30 00:32:15;;;;;;;1999.90;999.90;;;13.00;99.90;;;;;;5087740;28;20967;-72
2022/10/30 00:34:42;;;;;;;1999.90;999.90;;;13.00;99.90;;;;;;5087521;28;20468;-73
2022/10/30 00:37:10;;;;;;;1999.90;999.90;;;12.90;99.90;;;;;;5088865;28;20474;-73
2022/10/30 00:39:36;;;;;;;1999.90;999.90;;;13.00;99.90;;;;;;5088022;28;20536;-72
2022/10/30 00:42:03;;;;;;;1999.90;999.90;;;13.20;99.90;;;;;;5087534;28;20461;-73
2022/10/30 00:44:47;;;;;;;1999.90;999.90;;;13.20;99.90;;;;;;5087526;28;20451;-73
2022/10/30 00:47:19;;;;;;;1999.90;999.90;;;13.20;99.90;;;;;;5088564;28;20811;-73
2022/10/30 00:49:53;;;;;;;1999.90;999.90;;;13.20;99.90;;;;;;5088012;28;20485;-73
2022/10/30 00:52:21;;;;;;;1999.90;999.90;;;13.10;99.90;;;;;;5087905;28;20936;-73
2022/10/30 00:54:49;;;;;;;1999.90;999.90;;;13.10;99.90;;;;;;5087856;28;20483;-73
2022/10/30 00:57:15;;;;;;;1999.90;999.90;;;13.10;99.90;;;;;;5088564;28;20457;-73
2022/10/30 00:59:44;;;;;;;1999.90;999.90;;;13.10;99.90;;;;;;5087673;28;20461;-72
2022/10/30 01:02:11;;;;;;;1999.90;999.90;;;13.20;99.90;;;;;;5087835;28;20460;-73
2022/10/30 01:04:40;;;;;;;1999.90;999.90;;;13.10;99.90;;;;;;5088155;28;20455;-72
2022/10/30 01:07:11;;;;;;;1999.90;999.90;;;13.10;99.90;;;;;;5088519;28;20544;-73
2022/10/30 01:09:39;;;;;;;1999.90;999.90;;;13.10;99.90;;;;;;5088475;28;20488;-72
2022/10/30 01:12:07;;;;;;;1999.90;999.90;;;13.00;99.90;;;;;;5087792;28;20447;-73
2022/10/30 01:14:36;;;;;;;1999.90;999.90;;;13.00;99.90;;;;;;5087153;28;20453;-72
2022/10/30 01:17:29;;;;;;;1999.90;999.90;;;13.00;99.90;;;;;;5088466;28;20449;-73
2022/10/30 01:20:08;;;;;;;1999.90;999.90;;;12.90;99.90;;;;;;5088075;28;20477;-73
2022/10/30 01:22:48;;;;;;;1999.90;999.90;;;12.90;99.90;;;;;;5087003;28;20474;-72
2022/10/30 01:25:31;;;;;;;1999.90;999.90;;;12.90;99.90;;;;;;5087783;28;20487;-73
2022/10/30 01:28:07;;;;;;;1999.90;999.90;;;12.80;99.90;;;;;;5088006;28;20473;-73
2022/10/30 01:30:48;;;;;;;1999.90;999.90;;;12.80;99.90;;;;;;5090818;28;20859;-72
2022/10/30 01:33:26;;;;;;;1999.90;999.90;;;12.80;99.90;;;;;;5091749;28;20461;-73
2022/10/30 01:35:58;;;;;;;1999.90;999.90;;;12.70;99.90;;;;;;5090910;28;20458;-73
2022/10/30 01:38:32;;;;;;;1999.90;999.90;;;12.70;99.90;;;;;;5091896;28;20466;-72
2022/10/30 01:40:59;;;;;;;1999.90;999.90;;;12.70;99.90;;;;;;5091694;28;20446;-73
2022/10/30 01:43:26;;;;;;;1999.90;999.90;;;12.70;99.90;;;;;;5090857;28;20449;-73
2022/10/30 01:46:18;;;;;;;1999.90;999.90;;;12.70;99.90;;;;;;5091052;28;20453;-73
2022/10/30 01:49:02;;;;;;;1999.90;999.90;;;12.70;99.90;;;;;;5091500;28;20465;-73
2022/10/30 01:51:42;;;;;;;1999.90;999.90;;;12.80;99.90;;;;;;5091896;28;20477;-74
2022/10/30 01:54:19;;;;;;;1999.90;999.90;;;12.80;99.90;;;;;;5071208;28;20446;-74
2022/10/30 01:57:04;;;;;;;1999.90;999.90;;;12.90;99.90;;;;;;5071660;28;20537;-74
2022/10/30 01:59:37;;;;;;;1999.90;999.90;;;12.90;99.90;;;;;;5084014;28;20466;-73
2022/10/30 02:02:04;;;;;;;1999.90;999.90;;;12.90;99.90;;;;;;5090254;28;20462;-72
2022/10/30 02:04:32;;;;;;;1999.90;999.90;;;13.00;99.90;;;;;;5092136;28;20454;-72
2022/10/30 02:06:59;;;;;;;1999.90;999.90;;;12.90;99.90;;;;;;5092017;28;20449;-72
2022/10/30 02:09:26;;;;;;;1999.90;999.90;;;13.00;99.90;;;;;;5091880;28;20488;-72
2022/10/30 02:11:54;;;;;;;1999.90;999.90;;;13.00;99.90;;;;;;5091696;28;20476;-72
2022/10/30 02:14:26;;;;;;;1999.90;999.90;;;13.00;99.90;;;;;;5092233;28;20458;-72
2022/10/30 02:16:56;;;;;;;1999.90;999.90;;;13.00;99.90;;;;;;5092225;28;20453;-72
2022/10/30 02:19:23;;;;;;;1999.90;999.90;;;13.10;99.90;;;;;;5092841;28;20469;-72
2022/10/30 02:21:52;;;;;;;1999.90;999.90;;;13.10;99.90;;;;;;5091596;28;20450;-72
2022/10/30 02:24:19;;;;;;;1999.90;999.90;;;13.10;99.90;;;;;;5092260;28;20447;-72
2022/10/30 02:26:45;;;;;;;1999.90;999.90;;;13.20;99.90;;;;;;5092441;28;20839;-72
2022/10/30 02:29:12;;;;;;;1999.90;999.90;;;13.30;99.90;;;;;;5092338;28;20494;-72
2022/10/30 02:31:39;;;;;;;1999.90;999.90;;;13.30;99.90;;;;;;5091686;28;20478;-72
2022/10/30 02:34:06;;;;;;;1999.90;999.90;;;13.30;99.90;;;;;;5092228;28;20462;-71
2022/10/30 02:36:33;;;;;;;1999.90;999.90;;;13.30;99.90;;;;;;5091988;28;20954;-71
2022/10/30 02:39:01;;;;;;;1999.90;999.90;;;13.30;99.90;;;;;;5092285;28;20477;-72
2022/10/30 02:41:28;;;;;;;1999.90;999.90;;;13.30;99.90;;;;;;5091288;28;20523;-72
2022/10/30 02:43:55;;;;;;;1999.90;999.90;;;13.40;99.90;;;;;;5091882;28;20450;-72
2022/10/30 02:46:22;;;;;;;1999.90;999.90;;;13.40;99.90;;;;;;5091778;28;20450;-72
2022/10/30 02:48:49;;;;;;;1999.90;999.90;;;13.40;99.90;;;;;;5092237;28;20493;-72
2022/10/30 02:51:15;;;;;;;1999.90;999.90;;;13.30;99.90;;;;;;5091787;28;20493;-72
2022/10/30 02:53:42;;;;;;;1999.90;999.90;;;13.30;99.90;;;;;;5091788;28;20442;-72
2022/10/30 02:56:12;;;;;;;1999.90;999.90;;;13.30;99.90;;;;;;5091940;28;20456;-72
2022/10/30 02:58:39;;;;;;;1999.90;999.90;;;13.20;99.90;;;;;;5092163;28;20465;-72
2022/10/30 03:01:07;;;;;;;1999.90;999.90;;;13.20;99.90;;;;;;5091859;28;20438;-72
2022/10/30 03:03:34;;;;;;;1999.90;999.90;;;13.10;99.90;;;;;;5090781;28;20916;-71
2022/10/30 03:06:01;;;;;;;1999.90;999.90;;;13.10;99.90;;;;;;5090712;28;20809;-72
2022/10/30 03:08:28;;;;;;;1999.90;999.90;;;13.10;99.90;;;;;;5091376;28;20466;-72
2022/10/30 03:11:00;;;;;;;1999.90;999.90;;;13.10;99.90;;;;;;5091041;28;20482;-72
2022/10/30 03:13:30;;;;;;;1999.90;999.90;;;13.00;99.90;;;;;;5091197;28;20445;-72
2022/10/30 03:16:00;;;;;;;1999.90;999.90;;;12.90;99.90;;;;;;5091454;28;20434;-72
2022/10/30 03:18:27;;;;;;;1999.90;999.90;;;12.90;99.90;;;;;;5091568;28;20956;-72
2022/10/30 03:20:57;;;;;;;1999.90;999.90;;;12.90;99.90;;;;;;5090961;28;20435;-72
2022/10/30 03:23:24;;;;;;;1999.90;999.90;;;12.90;99.90;;;;;;5090886;28;20442;-72
2022/10/30 03:25:53;;;;;;;1999.90;999.90;;;12.80;99.90;;;;;;5091017;28;20449;-72
2022/10/30 03:28:19;;;;;;;1999.90;999.90;;;12.80;99.90;;;;;;5091387;28;20473;-72
2022/10/30 03:30:48;;;;;;;1999.90;999.90;;;12.70;99.90;;;;;;5090611;28;20998;-72
2022/10/30 03:33:15;;;;;;;1999.90;999.90;;;12.70;99.90;;;;;;5090904;28;20446;-72
2022/10/30 03:35:43;;;;;;;1999.90;999.90;;;12.60;99.90;;;;;;5090530;28;20458;-72
2022/10/30 03:38:10;;;;;;;1999.90;999.90;;;12.60;99.90;;;;;;5091139;28;21078;-72
2022/10/30 03:40:37;;;;;;;1999.90;999.90;;;12.50;99.90;;;;;;5090740;28;20810;-71
2022/10/30 03:43:03;;;;;;;1999.90;999.90;;;12.60;99.90;;;;;;5090675;28;20801;-72
2022/10/30 03:45:32;;;;;;;1999.90;999.90;;;12.50;99.90;;;;;;5090692;28;20445;-72
2022/10/30 03:48:00;;;;;;;1999.90;999.90;;;12.50;99.90;;;;;;5090865;28;20454;-72
2022/10/30 03:50:27;;;;;;;1999.90;999.90;;;12.50;99.90;;;;;;5090687;28;20470;-72
2022/10/30 03:52:54;;;;;;;1999.90;999.90;;;12.40;99.90;;;;;;5088995;28;20453;-72
2022/10/30 03:55:21;;;;;;;1999.90;999.90;;;12.40;99.90;;;;;;5090568;28;20442;-72
2022/10/30 03:57:48;;;;;;;1999.90;999.90;;;12.20;99.90;;;;;;5090684;28;20529;-71
2022/10/30 04:00:16;;;;;;;1999.90;999.90;;;12.20;99.90;;;;;;5090665;28;20438;-72
2022/10/30 04:02:47;;;;;;;1999.90;999.90;;;12.20;99.90;;;;;;5089700;28;20521;-72
2022/10/30 04:05:17;;;;;;;1999.90;999.90;;;12.10;99.90;;;;;;5090411;28;20450;-72
2022/10/30 04:07:44;;;;;;;1999.90;999.90;;;12.00;99.90;;;;;;5090620;28;20434;-72
2022/10/30 04:10:11;;;;;;;1999.90;999.90;;;12.00;99.90;;;;;;5090415;28;21193;-72
2022/10/30 04:12:38;;;;;;;1999.90;999.90;;;12.10;99.90;;;;;;5089503;28;20446;-72
2022/10/30 04:15:07;;;;;;;1999.90;999.90;;;12.10;99.90;;;;;;5090031;28;20437;-72
2022/10/30 04:17:34;;;;;;;1999.90;999.90;;;12.10;99.90;;;;;;5090347;28;20436;-72
2022/10/30 04:20:01;;;;;;;1999.90;999.90;;;12.10;99.90;;;;;;5090305;28;20449;-72
2022/10/30 04:22:29;;;;;;;1999.90;999.90;;;12.00;99.90;;;;;;5089539;28;20442;-72
2022/10/30 04:24:56;;;;;;;1999.90;999.90;;;12.00;99.90;;;;;;5090077;28;20452;-72
2022/10/30 04:27:22;;;;;;;1999.90;999.90;;;12.00;99.90;;;;;;5090440;28;20977;-72
2022/10/30 04:29:49;;;;;;;1999.90;999.90;;;11.90;99.90;;;;;;5090109;28;20504;-72
2022/10/30 04:32:16;;;;;;;1999.90;999.90;;;11.80;99.90;;;;;;5089255;28;20477;-71
2022/10/30 04:34:43;;;;;;;1999.90;999.90;;;11.80;99.90;;;;;;5089757;28;20453;-71
2022/10/30 04:37:09;;;;;;;1999.90;999.90;;;11.90;99.90;;;;;;5090266;28;20807;-72
2022/10/30 04:39:37;;;;;;;1999.90;999.90;;;12.00;99.90;;;;;;5089864;28;20454;-72
2022/10/30 04:42:04;;;;;;;1999.90;999.90;;;12.00;99.90;;;;;;5089228;28;20923;-71
2022/10/30 04:44:31;;;;;;;1999.90;999.90;;;12.00;99.90;;;;;;5089485;28;21127;-72
2022/10/30 04:46:58;;;;;;;1999.90;999.90;;;12.00;99.90;;;;;;5090180;28;20438;-72
2022/10/30 04:49:24;;;;;;;1999.90;999.90;;;11.90;99.90;;;;;;5089948;28;20461;-72
2022/10/30 04:51:51;;;;;;;1999.90;999.90;;;11.80;99.90;;;;;;5089261;28;20481;-72
2022/10/30 04:54:19;;;;;;;1999.90;999.90;;;11.80;99.90;;;;;;5089586;28;20452;-72
2022/10/30 04:56:48;;;;;;;1999.90;999.90;;;11.80;99.90;;;;;;5090229;28;20442;-71
2022/10/30 04:59:15;;;;;;;1999.90;999.90;;;11.70;99.90;;;;;;5089665;28;20454;-72
2022/10/30 05:01:41;;;;;;;1999.90;999.90;;;11.70;99.90;;;;;;5089318;28;20518;-71
2022/10/30 05:04:08;;;;;;;1999.90;999.90;;;11.70;99.90;;;;;;5090939;28;20445;-71
2022/10/30 05:06:35;;;;;;;1999.90;999.90;;;11.70;99.90;;;;;;5093930;28;20434;-71
2022/10/30 05:09:02;;;;;;;1999.90;999.90;;;11.80;99.90;;;;;;5094307;28;20820;-72
2022/10/30 05:11:29;;;;;;;1999.90;999.90;;;11.80;99.90;;;;;;5093754;28;20520;-72
2022/10/30 05:13:57;;;;;;;1999.90;999.90;;;11.80;99.90;;;;;;5093410;28;20804;-72
2022/10/30 05:16:24;;;;;;;1999.90;999.90;;;11.80;99.90;;;;;;5093829;28;20442;-72
2022/10/30 05:18:51;;;;;;;1999.90;999.90;;;11.80;99.90;;;;;;5094082;28;20481;-72
2022/10/30 05:21:17;;;;;;;1999.90;999.90;;;11.90;99.90;;;;;;5093316;28;20924;-72
2022/10/30 05:23:44;;;;;;;1999.90;999.90;;;11.90;99.90;;;;;;5093715;28;20445;-72
2022/10/30 05:26:11;;;;;;;1999.90;999.90;;;11.80;99.90;;;;;;5093459;28;20446;-72
2022/10/30 05:28:38;;;;;;;1999.90;999.90;;;11.80;99.90;;;;;;5093833;28;20454;-73
2022/10/30 05:31:06;;;;;;;1999.90;999.90;;;11.70;99.90;;;;;;5093419;28;20469;-72
2022/10/30 05:33:33;;;;;;;1999.90;999.90;;;11.70;99.90;;;;;;5093191;28;20436;-72
2022/10/30 05:36:00;;;;;;;1999.90;999.90;;;11.70;99.90;;;;;;5093469;28;20446;-72
2022/10/30 05:38:27;;;;;;;1999.90;999.90;;;11.60;99.90;;;;;;5093276;28;20458;-72
2022/10/30 05:40:53;;;;;;;1999.90;999.90;;;11.60;99.90;;;;;;5093013;28;20441;-71
2022/10/30 05:43:20;;;;;;;1999.90;999.90;;;11.50;99.90;;;;;;5093440;28;20804;-72
2022/10/30 05:45:49;;;;;;;1999.90;999.90;;;11.40;99.90;;;;;;5093283;28;20517;-72
2022/10/30 05:48:17;;;;;;;1999.90;999.90;;;11.40;99.90;;;;;;5093058;28;20535;-71
2022/10/30 05:50:44;;;;;;;1999.90;999.90;;;11.30;99.90;;;;;;5092657;28;21036;-71
2022/10/30 05:53:11;;;;;;;1999.90;999.90;;;11.30;99.90;;;;;;5092593;28;20472;-72
2022/10/30 05:55:37;;;;;;;1999.90;999.90;;;11.20;99.90;;;;;;5092665;28;20443;-72
2022/10/30 05:58:06;;;;;;;1999.90;999.90;;;11.20;99.90;;;;;;5092889;28;21165;-72
2022/10/30 06:00:35;;;;;;;1999.90;999.90;;;11.20;99.90;;;;;;5092972;28;20434;-72
2022/10/30 06:03:03;;;;;;;1999.90;999.90;;;11.20;99.90;;;;;;5092534;28;20441;-72
2022/10/30 06:05:32;;;;;;;1999.90;999.90;;;11.20;99.90;;;;;;5092688;28;20442;-72
2022/10/30 06:07:59;;;;;;;1999.90;999.90;;;11.30;99.90;;;;;;5092865;28;20814;-72
2022/10/30 06:10:27;;;;;;;1999.90;999.90;;;11.30;99.90;;;;;;5092644;28;20460;-72
2022/10/30 06:12:54;;;;;;;1999.90;999.90;;;11.30;99.90;;;;;;5091892;28;20954;-71
2022/10/30 06:15:20;;;;;;;1999.90;999.90;;;11.40;99.90;;;;;;5091356;28;20449;-72
2022/10/30 06:17:47;;;;;;;1999.90;999.90;;;11.40;99.90;;;;;;5092378;28;20939;-72
2022/10/30 06:20:15;;;;;;;1999.90;999.90;;;11.40;99.90;;;;;;5092458;28;20771;-72
2022/10/30 06:22:52;;;;;;;1999.90;999.90;;;11.40;99.90;;;;;;5091745;28;20426;-72
2022/10/30 06:25:19;;;;;;;1999.90;999.90;;;11.30;99.90;;;;;;5092076;28;20433;-72
2022/10/30 06:27:46;;;;;;;1999.90;999.90;;;11.30;99.90;;;;;;5092629;28;20437;-72
2022/10/30 06:30:13;;;;;;;1999.90;999.90;;;11.30;99.90;;;;;;5092550;28;20438;-72
2022/10/30 06:32:40;;;;;;;1999.90;999.90;;;11.30;99.90;;;;;;5091595;28;20485;-72
2022/10/30 06:35:08;;;;;;;1999.90;999.90;;;11.20;99.90;;;;;;5091800;28;20458;-72
2022/10/30 06:37:34;;;;;;;1999.90;999.90;;;11.30;99.90;;;;;;5092398;28;20442;-71
2022/10/30 06:40:03;;;;;;;1999.90;999.90;;;11.30;99.90;;;;;;5092463;28;20446;-72
2022/10/30 06:42:30;;;;;;;1999.90;999.90;;;11.30;99.90;;;;;;5091692;28;20430;-72
2022/10/30 06:44:56;;;;;;;1999.90;999.90;;;11.40;99.90;;;;;;5092220;28;20438;-72
2022/10/30 06:47:23;;;;;;;1999.90;999.90;;;11.40;99.90;;;;;;5092402;28;20777;-72
2022/10/30 06:49:50;;;;;;;1999.90;999.90;;;11.40;99.90;;;;;;5092338;28;20472;-72
2022/10/30 06:52:18;;;;;;;1999.90;999.90;;;11.50;99.90;;;;;;5091411;28;20474;-71
2022/10/30 06:54:46;;;;;;;1999.90;999.90;;;11.60;99.90;;;;;;5091868;28;20826;-72
2022/10/30 06:57:15;;;;;;;1999.90;999.90;;;11.60;99.90;;;;;;5092060;28;20438;-72
2022/10/30 06:59:42;;;;;;;1999.90;999.90;;;11.60;99.90;;;;;;5092068;28;21039;-72
2022/10/30 07:02:10;;;;;;;1999.90;999.90;;;11.70;99.90;;;;;;5091049;28;20434;-72
2022/10/30 07:04:37;;;;;;;1999.90;999.90;;;11.80;99.90;;;;;;5091648;28;20445;-72
2022/10/30 07:07:04;;;;;;;1999.90;999.90;;;11.80;99.90;;;;;;5092031;28;20434;-72
2022/10/30 07:09:30;;;;;;;1999.90;999.90;;;11.90;99.90;;;;;;5091570;28;20470;-72
2022/10/30 07:11:57;;;;;;;1999.90;999.90;;;11.90;99.90;;;;;;5091016;28;20473;-72
2022/10/30 07:14:25;;;;;;;1999.90;999.90;;;12.00;99.90;;;;;;5091568;28;20446;-72
2022/10/30 07:16:54;;;;;;;1999.90;999.90;;;12.10;99.90;;;;;;5091965;28;20438;-72
2022/10/30 07:19:21;;;;;;;1999.90;999.90;;;12.20;99.90;;;;;;5091569;28;20458;-71
2022/10/30 07:21:48;;;;;;;1999.90;999.90;;;12.30;99.90;;;;;;5090903;28;20434;-71
2022/10/30 07:24:15;;;;;;;1999.90;999.90;;;12.40;99.90;;;;;;5091360;28;20453;-72
2022/10/30 07:26:42;;;;;;;1999.90;999.90;;;12.50;99.90;;;;;;5091366;28;20445;-72
2022/10/30 07:29:09;;;;;;;1999.90;999.90;;;12.60;99.90;;;;;;5091051;28;20454;-72
2022/10/30 07:31:37;;;;;;;1999.90;999.90;;;12.60;99.90;;;;;;5090865;28;20488;-72
2022/10/30 07:34:04;;;;;;;1999.90;999.90;;;12.70;99.90;;;;;;5090796;28;20959;-72
2022/10/30 07:36:31;;;;;;;1999.90;999.90;;;12.80;99.90;;;;;;5090662;28;20966;-71
2022/10/30 07:38:58;;;;;;;1999.90;999.90;;;12.90;99.90;;;;;;5091139;28;20454;-72
2022/10/30 07:41:24;;;;;;;1999.90;999.90;;;13.00;99.90;;;;;;5090539;28;20426;-72
2022/10/30 07:43:51;;;;;;;1999.90;999.90;;;13.10;99.90;;;;;;5090566;28;20442;-72
2022/10/30 07:46:18;;;;;;;1999.90;999.90;;;13.20;99.90;;;;;;5090676;28;20440;-72
2022/10/30 07:48:46;;;;;;;1999.90;999.90;;;13.20;99.90;;;;;;5090993;28;20993;-72
2022/10/30 07:51:14;;;;;;;1999.90;999.90;;;13.40;99.90;;;;;;5090151;28;20983;-72
2022/10/30 07:53:40;;;;;;;1999.90;999.90;;;13.50;99.90;;;;;;5090442;28;20442;-72
2022/10/30 07:56:07;;;;;;;1999.90;999.90;;;13.60;99.90;;;;;;5090093;28;20442;-72
2022/10/30 07:58:36;;;;;;;1999.90;999.90;;;13.80;99.90;;;;;;5090545;28;20466;-71
2022/10/30 08:01:03;;;;;;;1999.90;999.90;;;13.90;99.90;;;;;;5090235;28;20456;-72
2022/10/30 08:03:30;;;;;;;1999.90;999.90;;;14.10;99.90;;;;;;5090362;28;20453;-72
2022/10/30 08:05:58;;;;;;;1999.90;999.90;;;14.20;99.90;;;;;;5090422;28;20446;-72
2022/10/30 08:08:24;;;;;;;1999.90;999.90;;;14.40;99.90;;;;;;5090297;28;20466;-72
2022/10/30 08:10:51;;;;;;;1999.90;999.90;;;14.50;99.90;;;;;;5089943;28;20963;-73
2022/10/30 08:13:18;;;;;;;1999.90;999.90;;;14.60;99.90;;;;;;5089791;28;20486;-73
2022/10/30 08:15:45;;;;;;;1999.90;999.90;;;14.70;99.90;;;;;;5090006;28;20830;-73
2022/10/30 08:18:11;;;;;;;1999.90;999.90;;;14.80;99.90;;;;;;5089987;28;20470;-73
2022/10/30 08:20:38;;;;;;;1999.90;999.90;;;14.90;99.90;;;;;;5090007;28;20442;-73
2022/10/30 08:23:06;;;;;;;1999.90;999.90;;;15.00;99.90;;;;;;5089603;28;20442;-73
2022/10/30 08:25:33;;;;;;;1999.90;999.90;;;15.10;99.90;;;;;;5089650;28;20453;-72
2022/10/30 08:28:02;;;;;;;1999.90;999.90;;;15.10;99.90;;;;;;5086764;28;20488;-73
2022/10/30 08:30:33;;;;;;;1999.90;999.90;;;15.20;99.90;;;;;;5087294;28;20966;-72
2022/10/30 08:33:01;;;;;;;1999.90;999.90;;;15.30;99.90;;;;;;5087470;28;20573;-72
2022/10/30 08:35:28;;;;;;;1999.90;999.90;;;15.40;99.90;;;;;;5089543;28;21031;-72
2022/10/30 08:37:55;;;;;;;1999.90;999.90;;;15.50;99.90;;;;;;5089661;28;20469;-72
2022/10/30 08:40:24;;;;;;;1999.90;999.90;;;15.60;99.90;;;;;;5086460;28;20446;-73
2022/10/30 08:42:51;;;;;;;1999.90;999.90;;;15.70;99.90;;;;;;5087127;28;20442;-72
2022/10/30 08:45:18;;;;;;;1999.90;999.90;;;15.80;99.90;;;;;;5087589;28;20446;-72
2022/10/30 08:47:45;;;;;;;1999.90;999.90;;;15.90;99.90;;;;;;5082430;28;20450;-71
2022/10/30 08:50:12;;;;;;;1999.90;999.90;;;16.00;99.90;;;;;;5087857;28;20967;-71
2022/10/30 08:52:38;;;;;;;1999.90;999.90;;;16.10;99.90;;;;;;5087900;28;20491;-70
2022/10/30 08:55:06;;;;;;;1999.90;999.90;;;16.20;99.90;;;;;;5088451;28;20457;-71
2022/10/30 08:57:36;;;;;;;1999.90;999.90;;;16.20;99.90;;;;;;5088458;28;20489;-71
2022/10/30 09:00:04;;;;;;;1999.90;999.90;;;16.40;99.90;;;;;;5079227;28;20442;-71
2022/10/30 09:02:31;;;;;;;1999.90;999.90;;;16.50;99.90;;;;;;5078038;28;20448;-70
2022/10/30 09:04:58;;;;;;;1999.90;999.90;;;16.60;99.90;;;;;;5077837;28;20816;-71
2022/10/30 09:07:24;;;;;;;1999.90;999.90;;;16.80;99.90;;;;;;5085269;28;20440;-70
2022/10/30 09:09:51;;;;;;;1999.90;999.90;;;17.00;99.90;;;;;;5087150;28;20462;-70
2022/10/30 09:12:18;;;;;;;1999.90;999.90;;;17.20;99.90;;;;;;5086629;28;20847;-72
2022/10/30 09:14:46;;;;;;;1999.90;999.90;;;17.30;99.90;;;;;;5087395;28;20446;-72
2022/10/30 09:17:13;;;;;;;1999.90;999.90;;;17.40;99.90;;;;;;5084091;28;20455;-71
2022/10/30 09:19:40;;;;;;;1999.90;999.90;;;17.60;99.90;;;;;;5080871;28;20473;-72
2022/10/30 09:22:07;;;;;;;1999.90;999.90;;;17.70;99.90;;;;;;5084459;28;20443;-71
2022/10/30 09:24:34;;;;;;;1999.90;999.90;;;18.00;99.90;;;;;;5088280;28;20446;-72
2022/10/30 09:27:01;;;;;;;1999.90;999.90;;;18.30;99.90;;;;;;5078080;28;20457;-72
2022/10/30 09:29:28;;;;;;;1999.90;999.90;;;18.60;99.90;;;;;;5089524;28;20466;-73
2022/10/30 09:31:56;;;;;;;1999.90;999.90;;;18.90;99.90;;;;;;5088824;28;20478;-72
2022/10/30 09:34:23;;;;;;;1999.90;999.90;;;19.40;99.90;;;;;;5088842;28;20450;-73
2022/10/30 09:36:50;;;;;;;1999.90;999.90;;;19.80;99.90;;;;;;5089777;28;20893;-72
2022/10/30 09:39:16;;;;;;;1999.90;999.90;;;20.20;99.90;;;;;;5089269;28;20477;-71
2022/10/30 09:42:15;;;;;;;1999.90;999.90;;;20.50;99.90;;;;;;5089260;28;20595;-72
2022/10/30 09:44:53;;;;;;;1999.90;999.90;;;21.00;99.90;;;;;;5092718;28;21059;-74
2022/10/30 09:47:31;;;;;;;1999.90;999.90;;;21.60;99.90;;;;;;5090396;28;20971;-70
2022/10/30 09:50:13;;;;;;;1999.90;999.90;;;22.20;99.90;;;;;;5090099;28;20458;-72
2022/10/30 09:52:46;;;;;;;1999.90;999.90;;;22.70;99.90;;;;;;5092798;28;20485;-73
2022/10/30 09:55:29;;;;;;;1999.90;999.90;;;23.10;99.90;;;;;;5092757;28;20448;-71
2022/10/30 09:58:04;;;;;;;1999.90;999.90;;;23.50;99.90;;;;;;5094795;28;20478;-70
2022/10/30 10:00:36;;;;;;;1999.90;999.90;;;23.90;99.90;;;;;;5094795;28;20495;-70
2022/10/30 10:03:23;;;;;;;1999.90;999.90;;;24.20;99.90;;;;;;5092182;28;20450;-71
2022/10/30 10:05:53;;;;;;;1999.90;999.90;;;24.80;99.90;;;;;;5087196;28;20438;-71
2022/10/30 10:08:24;;;;;;;1999.90;999.90;;;25.20;99.90;;;;;;5075208;28;21154;-70
2022/10/30 10:10:55;;;;;;;1999.90;999.90;;;25.60;99.90;;;;;;5072261;28;20451;-70
2022/10/30 10:13:31;;;;;;;1999.90;999.90;;;25.60;99.90;;;;;;5072798;28;20471;-71
2022/10/30 10:16:04;;;;;;;1999.90;999.90;;;25.60;99.90;;;;;;5086098;28;20936;-70
2022/10/30 10:18:39;;;;;;;1999.90;999.90;;;25.90;99.90;;;;;;5092096;28;20466;-70
2022/10/30 10:21:14;;;;;;;1999.90;999.90;;;26.10;98.90;;;;;;5092007;28;20800;-70
2022/10/30 10:23:47;;;;;;;1999.90;999.90;;;26.20;98.80;;;;;;5092164;28;20433;-70
2022/10/30 10:26:26;;;;;;;1999.90;999.90;;;26.80;98.20;;;;;;5091126;28;20450;-70
2022/10/30 10:29:13;;;;;;;1999.90;999.90;;;27.20;97.50;;;;;;5092319;28;20465;-70
2022/10/30 10:31:47;;;;;;;1999.90;999.90;;;27.50;96.80;;;;;;5091456;28;20441;-71
2022/10/30 10:34:33;;;;;;;1999.90;999.90;;;27.80;96.20;;;;;;5091853;28;20474;-70
2022/10/30 10:37:08;;;;;;;1999.90;999.90;;;28.10;94.70;;;;;;5089389;28;20442;-70
2022/10/30 10:39:50;;;;;;;1999.90;999.90;;;27.90;95.90;;;;;;5092265;28;20524;-70
2022/10/30 10:42:27;;;;;;;1999.90;999.90;;;28.00;95.10;;;;;;5089547;28;20446;-70
2022/10/30 10:45:12;;;;;;;1999.90;999.90;;;28.30;93.80;;;;;;5089170;28;20448;-70
2022/10/30 10:48:03;;;;;;;1999.90;999.90;;;28.00;95.70;;;;;;5085220;28;20453;-70
2022/10/30 10:50:33;;;;;;;1999.90;999.90;;;28.10;95.10;;;;;;5086375;28;20453;-70
2022/10/30 10:53:03;;;;;;;1999.90;999.90;;;28.20;94.90;;;;;;5085674;28;20489;-70
2022/10/30 10:55:35;;;;;;;1999.90;999.90;;;28.40;93.60;;;;;;5085378;28;20445;-70
2022/10/30 10:58:07;;;;;;;1999.90;999.90;;;28.60;93.10;;;;;;5082608;28;20470;-70
2022/10/30 11:00:35;;;;;;;1999.90;999.90;;;28.70;93.00;;;;;;5085772;28;20441;-71
2022/10/30 11:03:09;;;;;;;1999.90;999.90;;;29.00;93.10;;;;;;5092679;28;20442;-69
2022/10/30 11:05:43;;;;;;;1999.90;999.90;;;29.10;92.70;;;;;;5091782;28;20438;-69
2022/10/30 11:08:15;;;;;;;1999.90;999.90;;;29.20;92.40;;;;;;5092656;28;20971;-70
2022/10/30 11:10:41;;;;;;;1999.90;999.90;;;29.20;92.80;;;;;;5085618;28;20480;-72
2022/10/30 11:13:12;;;;;;;1999.90;999.90;;;28.80;92.10;;;;;;5090445;28;20481;-73
2022/10/30 11:15:56;;;;;;;1999.90;999.90;;;28.20;93.60;;;;;;5086279;28;20438;-73
2022/10/30 11:18:23;;;;;;;1999.90;999.90;;;28.00;93.90;;;;;;5085182;28;20466;-71
2022/10/30 11:20:59;;;;;;;1999.90;999.90;;;28.40;94.60;;;;;;5082912;28;20451;-72
2022/10/30 11:23:38;;;;;;;1999.90;999.90;;;29.00;93.80;;;;;;5089265;28;20469;-70
2022/10/30 11:26:27;;;;;;;1999.90;999.90;;;29.40;91.40;;;;;;5079379;28;20814;-71
2022/10/30 11:28:57;;;;;;;1999.90;999.90;;;29.10;91.60;;;;;;5091358;28;20506;-72
2022/10/30 11:31:26;;;;;;;1999.90;999.90;;;28.40;92.40;;;;;;5091124;28;20537;-71
2022/10/30 11:33:53;;;;;;;1999.90;999.90;;;27.20;94.20;;;;;;5091175;28;20497;-69
2022/10/30 11:36:24;;;;;;;1999.90;999.90;;;26.50;95.10;;;;;;5090822;28;20449;-68
2022/10/30 11:38:52;;;;;;;1999.90;999.90;;;26.10;96.30;;;;;;5090510;28;21010;-69
2022/10/30 11:41:20;;;;;;;1999.90;999.90;;;25.70;98.10;;;;;;5090309;28;20434;-68
2022/10/30 11:43:48;;;;;;;1999.90;999.90;;;25.10;97.00;;;;;;5089392;28;20458;-71
2022/10/30 11:46:21;;;;;;;1999.90;999.90;;;24.90;98.10;;;;;;5089488;28;21113;-71
2022/10/30 11:48:53;;;;;;;1999.90;999.90;;;24.70;98.70;;;;;;5088360;28;20485;-71
2022/10/30 11:51:32;;;;;;;1999.90;999.90;;;24.60;99.20;;;;;;5088205;28;20450;-69
2022/10/30 11:54:00;;;;;;;1999.90;999.90;;;24.50;99.30;;;;;;5082802;28;20482;-71
2022/10/30 11:56:29;;;;;;;1999.90;999.90;;;24.50;99.00;;;;;;5086682;28;20450;-69
2022/10/30 11:58:58;;;;;;;1999.90;999.90;;;24.40;99.60;;;;;;5086570;28;20462;-71
2022/10/30 12:01:27;;;;;;;1999.90;999.90;;;24.40;99.90;;;;;;5077692;28;20447;-69
2022/10/30 12:03:55;;;;;;;1999.90;999.90;;;24.40;99.80;;;;;;5081800;28;20841;-72
2022/10/30 12:06:27;;;;;;;1999.90;999.90;;;24.30;99.90;;;;;;5080180;28;20450;-72
2022/10/30 12:09:04;;;;;;;1999.90;999.90;;;24.20;99.90;;;;;;5083056;28;20492;-71